createdAt,value
2022-11-05T00:01:17.785Z,68.10
2022-11-05T00:04:04.618Z,68.20
2022-11-05T00:06:51.580Z,68.30
2022-11-05T00:09:31.040Z,68.20
2022-11-05T00:12:20.367Z,68.20
2022-11-05T00:15:07.088Z,68.30
2022-11-05T00:17:36.296Z,68.10
2022-11-05T00:20:06.683Z,68.00
2022-11-05T00:22:53.466Z,68.00
2022-11-05T00:25:24.235Z,68.10
2022-11-05T00:27:54.190Z,68.10
2022-11-05T00:30:25.816Z,68.10
2022-11-05T00:32:55.013Z,68.20
2022-11-05T00:35:24.071Z,68.30
2022-11-05T00:37:54.732Z,68.20
2022-11-05T00:40:25.232Z,68.20
2022-11-05T00:43:12.038Z,68.20
2022-11-05T00:45:42.452Z,68.60
2022-11-05T00:48:29.020Z,68.00
2022-11-05T00:50:58.065Z,68.00
2022-11-05T00:53:27.004Z,68.10
2022-11-05T00:55:57.329Z,68.20
2022-11-05T00:58:27.165Z,68.40
2022-11-05T01:00:57.639Z,68.60
2022-11-05T01:03:28.859Z,68.70
2022-11-05T01:06:00.084Z,68.70
2022-11-05T01:08:29.493Z,68.60
2022-11-05T01:11:00.819Z,68.60
2022-11-05T01:13:31.286Z,68.60
2022-11-05T01:16:06.910Z,68.40
2022-11-05T01:18:38.084Z,68.50
2022-11-05T01:21:14.511Z,68.50
2022-11-05T01:23:43.763Z,68.50
2022-11-05T01:26:14.116Z,68.50
2022-11-05T01:28:43.151Z,68.40
2022-11-05T01:31:12.169Z,68.40
2022-11-05T01:33:41.109Z,68.40
2022-11-05T01:36:10.589Z,68.50
2022-11-05T01:38:39.618Z,68.60
2022-11-05T01:41:09.015Z,68.80
2022-11-05T01:43:49.585Z,68.90
2022-11-05T01:46:22.138Z,69.10
2022-11-05T01:48:58.605Z,69.10
2022-11-05T01:51:31.544Z,69.10
2022-11-05T01:54:04.107Z,69.10
2022-11-05T01:56:36.560Z,69.20
2022-11-05T01:59:10.594Z,69.10
2022-11-05T02:01:39.899Z,69.10
2022-11-05T02:04:12.758Z,69.10
2022-11-05T02:06:45.955Z,69.20
2022-11-05T02:09:21.009Z,69.10
2022-11-05T02:11:52.050Z,69.10
2022-11-05T02:14:22.858Z,69.10
2022-11-05T02:16:56.183Z,69.10
2022-11-05T02:19:54.273Z,69.10
2022-11-05T02:22:45.105Z,69.20
2022-11-05T02:25:31.301Z,69.30
2022-11-05T02:28:19.428Z,69.40
2022-11-05T02:30:53.134Z,69.50
2022-11-05T02:33:39.712Z,69.50
2022-11-05T02:36:30.600Z,69.60
2022-11-05T02:39:09.474Z,69.70
2022-11-05T02:41:48.330Z,69.70
2022-11-05T02:44:27.646Z,69.70
2022-11-05T02:47:03.628Z,69.80
2022-11-05T02:49:41.455Z,69.80
2022-11-05T02:52:17.454Z,69.70
2022-11-05T02:54:50.948Z,69.70
2022-11-05T02:57:21.949Z,69.50
2022-11-05T02:59:50.693Z,69.50
2022-11-05T03:02:21.386Z,69.50
2022-11-05T03:04:50.316Z,69.40
2022-11-05T03:07:44.459Z,69.40
2022-11-05T03:10:28.473Z,69.40
2022-11-05T03:13:09.379Z,69.40
2022-11-05T03:15:57.575Z,69.40
2022-11-05T03:18:34.546Z,69.40
2022-11-05T03:21:09.979Z,69.30
2022-11-05T03:23:45.004Z,69.30
2022-11-05T03:26:17.693Z,69.20
2022-11-05T03:28:49.813Z,69.20
2022-11-05T03:31:20.536Z,69.20
2022-11-05T03:33:52.798Z,69.10
2022-11-05T03:36:28.010Z,69.00
2022-11-05T03:39:00.141Z,69.20
2022-11-05T03:41:30.465Z,69.20
2022-11-05T03:44:05.101Z,69.20
2022-11-05T03:46:37.761Z,69.10
2022-11-05T03:49:13.065Z,69.20
2022-11-05T03:51:47.331Z,69.10
2022-11-05T03:54:16.870Z,69.20
2022-11-05T03:56:54.611Z,69.20
2022-11-05T03:59:23.974Z,69.30
2022-11-05T04:01:53.005Z,69.10
2022-11-05T04:04:23.124Z,69.10
2022-11-05T04:07:09.283Z,69.20
2022-11-05T04:09:55.723Z,69.10
2022-11-05T04:12:42.720Z,69.20
2022-11-05T04:15:11.801Z,69.30
2022-11-05T04:17:40.009Z,69.20
2022-11-05T04:20:28.661Z,69.00
2022-11-05T04:23:19.300Z,69.00
2022-11-05T04:25:48.549Z,69.00
2022-11-05T04:28:17.820Z,69.20
2022-11-05T04:30:45.901Z,69.30
2022-11-05T04:33:16.536Z,69.20
2022-11-05T04:35:48.468Z,69.20
2022-11-05T04:38:20.142Z,69.20
2022-11-05T04:40:49.619Z,69.20
2022-11-05T04:43:20.299Z,69.10
2022-11-05T04:45:49.231Z,69.10
2022-11-05T04:48:18.085Z,69.10
2022-11-05T04:50:48.259Z,69.00
2022-11-05T04:53:16.943Z,69.10
2022-11-05T04:55:45.707Z,69.20
2022-11-05T04:58:14.633Z,69.20
2022-11-05T05:00:44.087Z,69.30
2022-11-05T05:03:13.558Z,69.50
2022-11-05T05:05:42.846Z,69.60
2022-11-05T05:08:13.109Z,69.70
2022-11-05T05:10:42.291Z,69.90
2022-11-05T05:13:12.837Z,70.00
2022-11-05T05:15:42.305Z,70.10
2022-11-05T05:18:11.233Z,70.00
2022-11-05T05:20:57.688Z,70.10
2022-11-05T05:23:28.024Z,70.10
2022-11-05T05:25:59.693Z,70.20
2022-11-05T05:28:29.261Z,70.20
2022-11-05T05:31:00.321Z,70.00
2022-11-05T05:33:29.420Z,70.00
2022-11-05T05:35:58.897Z,70.00
2022-11-05T05:38:29.721Z,70.10
2022-11-05T05:41:00.299Z,70.20
2022-11-05T05:43:31.166Z,70.20
2022-11-05T05:46:03.068Z,70.10
2022-11-05T05:48:32.410Z,70.10
2022-11-05T05:51:02.721Z,70.00
2022-11-05T05:53:33.690Z,69.90
2022-11-05T05:56:03.363Z,69.80
2022-11-05T05:58:34.480Z,69.80
2022-11-05T06:01:03.948Z,69.80
2022-11-05T06:03:33.048Z,69.70
2022-11-05T06:06:03.399Z,69.40
2022-11-05T06:08:34.551Z,69.30
2022-11-05T06:11:04.922Z,69.40
2022-11-05T06:13:34.821Z,69.50
2022-11-05T06:16:05.762Z,69.50
2022-11-05T06:18:35.551Z,69.50
2022-11-05T06:21:04.783Z,69.50
2022-11-05T06:23:36.302Z,69.50
2022-11-05T06:26:07.865Z,69.70
2022-11-05T06:28:37.156Z,69.70
2022-11-05T06:31:06.592Z,69.70
2022-11-05T06:33:35.500Z,70.00
2022-11-05T06:36:06.452Z,70.00
2022-11-05T06:38:38.098Z,69.80
2022-11-05T06:41:10.289Z,69.80
2022-11-05T06:43:39.870Z,70.00
2022-11-05T06:46:09.393Z,69.90
2022-11-05T06:48:38.559Z,69.90
2022-11-05T06:51:08.812Z,69.80
2022-11-05T06:53:38.969Z,70.00
2022-11-05T06:56:09.083Z,70.00
2022-11-05T06:58:38.180Z,70.10
2022-11-05T07:01:09.462Z,70.10
2022-11-05T07:03:39.440Z,69.90
2022-11-05T07:06:08.994Z,69.90
2022-11-05T07:08:39.170Z,69.70
2022-11-05T07:11:08.232Z,69.70
2022-11-05T07:13:37.084Z,69.70
2022-11-05T07:16:06.462Z,69.80
2022-11-05T07:18:35.446Z,69.80
2022-11-05T07:21:04.713Z,69.80
2022-11-05T07:23:33.522Z,69.80
2022-11-05T07:26:03.849Z,69.90
2022-11-05T07:28:33.013Z,70.00
2022-11-05T07:31:03.548Z,69.90
2022-11-05T07:33:36.284Z,69.90
2022-11-05T07:36:06.373Z,69.90
2022-11-05T07:38:35.437Z,70.00
2022-11-05T07:41:06.048Z,70.00
2022-11-05T07:43:34.750Z,70.70
2022-11-05T07:46:03.556Z,69.90
2022-11-05T07:48:32.489Z,70.00
2022-11-05T07:51:01.571Z,69.80
2022-11-05T07:53:30.512Z,69.40
2022-11-05T07:55:59.934Z,69.40
2022-11-05T07:58:30.101Z,69.20
2022-11-05T08:00:59.265Z,69.00
2022-11-05T08:03:28.754Z,68.90
2022-11-05T08:05:57.707Z,68.90
2022-11-05T08:08:26.573Z,68.80
2022-11-05T08:10:55.461Z,68.80
2022-11-05T08:13:24.257Z,68.80
2022-11-05T08:15:56.933Z,68.90
2022-11-05T08:18:31.155Z,68.90
2022-11-05T08:21:01.443Z,69.00
2022-11-05T08:23:31.876Z,69.20
2022-11-05T08:26:03.788Z,69.00
2022-11-05T08:28:32.975Z,68.60
2022-11-05T08:31:04.535Z,69.40
2022-11-05T08:33:34.792Z,68.70
2022-11-05T08:36:05.341Z,69.00
2022-11-05T08:38:34.090Z,69.20
2022-11-05T08:41:02.997Z,69.40
2022-11-05T08:43:32.041Z,69.20
2022-11-05T08:46:01.538Z,69.10
2022-11-05T08:48:31.729Z,69.10
2022-11-05T08:51:02.288Z,69.00
2022-11-05T08:53:31.416Z,68.80
2022-11-05T08:56:00.715Z,68.80
2022-11-05T08:58:29.631Z,68.90
2022-11-05T09:01:04.473Z,68.90
2022-11-05T09:03:35.504Z,68.70
2022-11-05T09:06:04.764Z,68.70
2022-11-05T09:08:33.909Z,68.70
2022-11-05T09:11:02.793Z,68.60
2022-11-05T09:13:31.571Z,68.30
2022-11-05T09:16:01.400Z,67.80
2022-11-05T09:18:30.312Z,67.30
2022-11-05T09:21:00.872Z,67.20
2022-11-05T09:23:29.917Z,66.80
2022-11-05T09:25:58.953Z,67.40
2022-11-05T09:28:28.454Z,66.70
2022-11-05T09:30:57.657Z,66.40
2022-11-05T09:33:27.928Z,66.40
2022-11-05T09:36:02.228Z,66.50
2022-11-05T09:38:31.570Z,66.30
2022-11-05T09:41:02.632Z,66.00
2022-11-05T09:43:36.794Z,66.50
2022-11-05T09:46:12.769Z,66.90
2022-11-05T09:48:43.316Z,66.50
2022-11-05T09:51:20.736Z,66.30
2022-11-05T09:53:53.392Z,66.90
2022-11-05T09:56:25.780Z,66.00
2022-11-05T09:58:59.450Z,65.60
2022-11-05T10:01:32.216Z,65.10
2022-11-05T10:04:06.775Z,64.80
2022-11-05T10:06:42.583Z,64.70
2022-11-05T10:09:18.990Z,64.50
2022-11-05T10:11:52.710Z,64.50
2022-11-05T10:14:26.056Z,64.70
2022-11-05T10:17:01.265Z,64.40
2022-11-05T10:19:36.873Z,64.10
2022-11-05T10:22:12.173Z,64.10
2022-11-05T10:24:44.375Z,64.20
2022-11-05T10:27:17.528Z,64.50
2022-11-05T10:29:47.912Z,64.70
2022-11-05T10:32:26.597Z,64.70
2022-11-05T10:34:58.457Z,64.60
2022-11-05T10:37:29.845Z,64.70
2022-11-05T10:39:59.451Z,65.20
2022-11-05T10:42:42.449Z,64.90
2022-11-05T10:45:20.822Z,65.20
2022-11-05T10:48:03.554Z,66.50
2022-11-05T10:50:34.871Z,67.10
2022-11-05T10:53:13.740Z,67.10
2022-11-05T10:55:45.618Z,65.40
2022-11-05T10:58:22.496Z,63.80
2022-11-05T11:01:05.373Z,61.10
2022-11-05T11:03:40.022Z,58.50
2022-11-05T11:06:20.197Z,56.90
2022-11-05T11:08:52.260Z,56.00
2022-11-05T11:11:30.704Z,55.10
2022-11-05T11:14:06.234Z,53.90
2022-11-05T11:16:38.085Z,53.40
2022-11-05T11:19:25.653Z,52.20
2022-11-05T11:22:14.826Z,51.80
2022-11-05T11:24:48.881Z,51.60
2022-11-05T11:27:22.506Z,51.00
2022-11-05T11:29:56.677Z,51.00
2022-11-05T11:32:29.440Z,50.70
2022-11-05T11:34:58.831Z,50.80
2022-11-05T11:37:32.726Z,51.10
2022-11-05T11:40:05.894Z,51.00
2022-11-05T11:42:37.804Z,51.50
2022-11-05T11:45:16.178Z,51.50
2022-11-05T11:47:47.036Z,51.60
2022-11-05T11:50:39.444Z,51.90
2022-11-05T11:53:25.446Z,52.80
2022-11-05T11:56:18.866Z,53.10
2022-11-05T11:58:49.877Z,53.40
2022-11-05T12:01:49.190Z,53.40
2022-11-05T12:04:49.250Z,53.20
2022-11-05T12:07:28.557Z,53.50
2022-11-05T12:10:09.706Z,53.80
2022-11-05T12:12:53.187Z,53.50
2022-11-05T12:15:35.703Z,53.10
2022-11-05T12:18:06.561Z,53.20
2022-11-05T12:20:50.803Z,53.50
2022-11-05T12:23:40.697Z,53.70
2022-11-05T12:26:23.832Z,54.30
2022-11-05T12:29:21.396Z,55.00
2022-11-05T12:31:59.748Z,55.60
2022-11-05T12:34:44.035Z,56.00
2022-11-05T12:37:23.546Z,56.50
2022-11-05T12:40:16.171Z,56.80
2022-11-05T12:42:57.658Z,57.20
2022-11-05T12:45:41.339Z,57.70
2022-11-05T12:48:28.305Z,58.00
2022-11-05T12:51:04.764Z,58.00
2022-11-05T12:53:59.410Z,58.20
2022-11-05T12:56:34.205Z,58.50
2022-11-05T12:59:12.504Z,58.80
2022-11-05T13:01:47.278Z,59.10
2022-11-05T13:04:26.599Z,59.50
2022-11-05T13:06:58.078Z,59.80
2022-11-05T13:09:32.765Z,60.00
2022-11-05T13:12:05.597Z,60.90
2022-11-05T13:14:41.761Z,61.10
2022-11-05T13:17:16.170Z,61.80
2022-11-05T13:19:50.804Z,62.10
2022-11-05T13:22:38.465Z,62.60
2022-11-05T13:25:14.156Z,63.10
2022-11-05T13:27:51.368Z,62.90
2022-11-05T13:30:23.133Z,62.90
2022-11-05T13:32:58.993Z,62.90
2022-11-05T13:35:32.302Z,63.20
2022-11-05T13:38:28.033Z,63.00
2022-11-05T13:41:06.951Z,63.10
2022-11-05T13:43:52.608Z,62.90
2022-11-05T13:46:34.634Z,63.10
2022-11-05T13:49:26.711Z,62.60
2022-11-05T13:51:58.068Z,62.50
2022-11-05T13:54:45.805Z,62.30
2022-11-05T13:57:45.321Z,62.40
2022-11-05T14:00:20.388Z,62.10
2022-11-05T14:02:53.313Z,62.20
2022-11-05T14:05:29.598Z,62.40
2022-11-05T14:08:00.882Z,62.60
2022-11-05T14:10:36.515Z,62.70
2022-11-05T14:13:17.563Z,62.70
2022-11-05T14:16:03.841Z,62.70
2022-11-05T14:18:42.254Z,62.90
2022-11-05T14:21:42.385Z,62.80
2022-11-05T14:24:42.987Z,62.10
2022-11-05T14:27:43.494Z,62.20
2022-11-05T14:30:45.519Z,62.70
2022-11-05T14:33:18.204Z,62.70
2022-11-05T14:35:47.105Z,62.40
2022-11-05T14:38:23.157Z,62.50
2022-11-05T14:41:01.408Z,62.60
2022-11-05T14:43:36.113Z,63.60
2022-11-05T14:46:07.111Z,63.40
2022-11-05T14:48:40.636Z,63.50
2022-11-05T14:51:28.321Z,63.60
2022-11-05T14:54:05.841Z,63.40
2022-11-05T14:56:43.840Z,63.40
2022-11-05T14:59:36.049Z,63.60
2022-11-05T15:02:12.756Z,63.30
2022-11-05T15:04:45.311Z,63.30
2022-11-05T15:07:35.473Z,63.50
2022-11-05T15:10:11.647Z,63.90
2022-11-05T15:12:45.742Z,64.10
2022-11-05T15:15:22.447Z,64.10
2022-11-05T15:18:01.559Z,64.40
2022-11-05T15:20:40.142Z,64.20
2022-11-05T15:23:15.319Z,64.20
2022-11-05T15:25:53.395Z,64.30
2022-11-05T15:28:31.461Z,64.20
2022-11-05T15:31:02.865Z,64.20
2022-11-05T15:33:32.980Z,64.60
2022-11-05T15:36:12.720Z,64.70
2022-11-05T15:38:56.594Z,65.10
2022-11-05T15:41:34.513Z,65.00
2022-11-05T15:44:03.736Z,65.10
2022-11-05T15:46:32.660Z,65.00
2022-11-05T15:49:07.014Z,65.00
2022-11-05T15:51:36.534Z,65.10
2022-11-05T15:54:29.168Z,64.90
2022-11-05T15:56:58.767Z,65.00
2022-11-05T15:59:30.141Z,65.00
2022-11-05T16:02:06.196Z,65.20
2022-11-05T16:04:36.039Z,65.30
2022-11-05T16:07:11.196Z,65.00
2022-11-05T16:09:43.600Z,65.00
2022-11-05T16:12:23.987Z,64.90
2022-11-05T16:15:01.461Z,64.70
2022-11-05T16:17:33.530Z,64.80
2022-11-05T16:20:02.413Z,64.70
2022-11-05T16:22:53.890Z,64.70
2022-11-05T16:25:31.864Z,64.70
2022-11-05T16:28:02.502Z,64.80
2022-11-05T16:30:32.594Z,64.70
2022-11-05T16:33:07.435Z,64.70
2022-11-05T16:35:40.896Z,64.80
2022-11-05T16:38:13.052Z,65.00
2022-11-05T16:40:42.536Z,65.00
2022-11-05T16:43:21.473Z,64.90
2022-11-05T16:45:53.529Z,64.90
2022-11-05T16:48:22.608Z,64.70
2022-11-05T16:50:52.564Z,64.70
2022-11-05T16:53:21.370Z,64.80
2022-11-05T16:55:50.997Z,64.90
2022-11-05T16:58:23.925Z,65.10
2022-11-05T17:00:56.970Z,65.10
2022-11-05T17:03:26.144Z,65.30
2022-11-05T17:05:55.074Z,65.10
2022-11-05T17:08:23.785Z,65.00
2022-11-05T17:10:52.640Z,65.00
2022-11-05T17:13:22.922Z,65.40
2022-11-05T17:15:52.743Z,65.60
2022-11-05T17:18:22.114Z,65.80
2022-11-05T17:20:53.170Z,66.10
2022-11-05T17:23:23.923Z,66.10
2022-11-05T17:25:55.197Z,66.30
2022-11-05T17:28:26.472Z,66.40
2022-11-05T17:30:57.190Z,66.30
2022-11-05T17:33:26.083Z,66.10
2022-11-05T17:35:55.358Z,66.10
2022-11-05T17:38:26.654Z,66.10
2022-11-05T17:40:55.792Z,66.00
2022-11-05T17:43:26.014Z,66.10
2022-11-05T17:45:58.653Z,66.00
2022-11-05T17:48:30.964Z,66.10
2022-11-05T17:51:00.083Z,66.30
2022-11-05T17:53:29.269Z,66.30
2022-11-05T17:55:58.284Z,66.40
2022-11-05T17:58:29.426Z,66.50
2022-11-05T18:00:58.309Z,66.70
2022-11-05T18:03:27.163Z,66.70
2022-11-05T18:06:02.350Z,66.70
2022-11-05T18:08:31.705Z,66.80
2022-11-05T18:11:00.582Z,66.70
2022-11-05T18:13:30.837Z,66.80
2022-11-05T18:15:59.834Z,66.80
2022-11-05T18:18:28.792Z,66.80
2022-11-05T18:20:58.473Z,66.80
2022-11-05T18:23:27.750Z,66.70
2022-11-05T18:25:56.907Z,66.60
2022-11-05T18:28:25.931Z,66.50
2022-11-05T18:30:57.360Z,66.50
2022-11-05T18:33:26.272Z,66.50
2022-11-05T18:35:55.254Z,66.60
2022-11-05T18:38:24.445Z,66.60
2022-11-05T18:40:53.277Z,66.70
2022-11-05T18:43:22.079Z,66.80
2022-11-05T18:45:57.440Z,66.90
2022-11-05T18:48:26.644Z,67.10
2022-11-05T18:51:01.545Z,67.10
2022-11-05T18:53:31.154Z,67.20
2022-11-05T18:56:00.194Z,67.20
2022-11-05T18:58:29.038Z,67.30
2022-11-05T19:01:03.954Z,67.40
2022-11-05T19:03:35.511Z,67.60
2022-11-05T19:06:05.486Z,67.60
2022-11-05T19:08:35.274Z,67.60
2022-11-05T19:11:09.569Z,67.60
2022-11-05T19:13:38.530Z,67.60
2022-11-05T19:16:10.393Z,67.50
2022-11-05T19:18:39.591Z,67.60
2022-11-05T19:21:09.230Z,67.50
2022-11-05T19:23:39.410Z,67.50
2022-11-05T19:26:09.178Z,67.50
2022-11-05T19:28:38.349Z,67.50
2022-11-05T19:31:08.990Z,67.50
2022-11-05T19:33:38.179Z,67.70
2022-11-05T19:36:08.698Z,67.70
2022-11-05T19:38:38.394Z,67.90
2022-11-05T19:41:08.991Z,68.00
2022-11-05T19:43:39.880Z,68.00
2022-11-05T19:46:12.985Z,68.00
2022-11-05T19:48:42.598Z,68.00
2022-11-05T19:51:14.941Z,67.90
2022-11-05T19:53:44.409Z,67.90
2022-11-05T19:56:15.136Z,67.90
2022-11-05T19:58:44.632Z,68.00
2022-11-05T20:01:15.884Z,68.20
2022-11-05T20:03:45.081Z,68.40
2022-11-05T20:06:16.553Z,68.50
2022-11-05T20:09:19.995Z,68.60
2022-11-05T20:11:36.986Z,68.70
2022-11-05T20:14:06.697Z,68.70
2022-11-05T20:16:37.854Z,68.80
2022-11-05T20:19:08.442Z,68.90
2022-11-05T20:21:37.589Z,68.90
2022-11-05T20:24:06.815Z,68.90
2022-11-05T20:26:35.496Z,68.90
2022-11-05T20:29:04.589Z,68.90
2022-11-05T20:31:33.495Z,68.90
2022-11-05T20:34:03.692Z,68.80
2022-11-05T20:36:32.620Z,68.80
2022-11-05T20:39:02.787Z,68.70
2022-11-05T20:41:32.146Z,68.60
2022-11-05T20:44:00.972Z,68.60
2022-11-05T20:46:29.640Z,68.60
2022-11-05T20:48:58.338Z,68.60
2022-11-05T20:51:28.695Z,68.70
2022-11-05T20:53:58.735Z,68.60
2022-11-05T20:56:29.512Z,68.80
2022-11-05T20:58:59.566Z,68.80
2022-11-05T21:01:30.261Z,68.80
2022-11-05T21:03:59.969Z,68.90
2022-11-05T21:06:30.501Z,68.90
2022-11-05T21:08:59.389Z,68.90
2022-11-05T21:11:28.437Z,68.90
2022-11-05T21:13:57.620Z,69.10
2022-11-05T21:16:26.539Z,69.10
2022-11-05T21:18:55.386Z,69.10
2022-11-05T21:21:24.039Z,69.00
2022-11-05T21:23:54.359Z,69.00
2022-11-05T21:26:23.085Z,68.90
2022-11-05T21:28:51.940Z,68.80
2022-11-05T21:31:20.796Z,68.80
2022-11-05T21:33:54.820Z,68.80
2022-11-05T21:36:24.136Z,68.80
2022-11-05T21:38:54.468Z,68.90
2022-11-05T21:41:23.226Z,68.90
2022-11-05T21:43:52.001Z,68.90
2022-11-05T21:46:21.334Z,69.00
2022-11-05T21:48:50.418Z,69.10
2022-11-05T21:51:37.186Z,69.20
2022-11-05T21:54:24.783Z,69.30
2022-11-05T21:57:11.208Z,69.20
2022-11-05T21:59:49.160Z,69.10
2022-11-05T22:02:20.452Z,69.10
2022-11-05T22:04:52.038Z,69.20
2022-11-05T22:07:24.963Z,69.10
2022-11-05T22:09:57.274Z,69.00
2022-11-05T22:12:26.546Z,69.00
2022-11-05T22:14:55.831Z,69.00
2022-11-05T22:17:25.457Z,69.00
2022-11-05T22:19:54.892Z,69.00
2022-11-05T22:22:23.606Z,69.10
2022-11-05T22:24:52.536Z,69.20
2022-11-05T22:27:23.181Z,69.30
2022-11-05T22:29:52.090Z,69.40
2022-11-05T22:32:20.964Z,70.00
2022-11-05T22:34:49.790Z,69.60
2022-11-05T22:37:18.717Z,69.60
2022-11-05T22:39:47.575Z,69.70
2022-11-05T22:42:16.465Z,69.70
2022-11-05T22:44:46.543Z,69.70
2022-11-05T22:47:15.505Z,69.70
2022-11-05T22:49:45.218Z,69.60
2022-11-05T22:52:13.951Z,69.40
2022-11-05T22:54:42.961Z,69.50
2022-11-05T22:57:11.853Z,69.40
2022-11-05T22:59:40.781Z,69.30
2022-11-05T23:02:11.348Z,69.30
2022-11-05T23:04:40.801Z,69.20
2022-11-05T23:07:28.924Z,69.10
2022-11-05T23:10:15.081Z,69.00
2022-11-05T23:12:44.397Z,68.90
2022-11-05T23:15:34.353Z,68.90
2022-11-05T23:18:33.946Z,69.00
2022-11-05T23:21:23.075Z,69.00
2022-11-05T23:24:07.628Z,69.10
2022-11-05T23:26:52.740Z,69.20
2022-11-05T23:29:24.037Z,69.10
2022-11-05T23:32:11.422Z,69.20
2022-11-05T23:34:42.007Z,69.30
2022-11-05T23:37:28.677Z,69.30
2022-11-05T23:39:57.782Z,69.40
2022-11-05T23:42:44.485Z,69.40
2022-11-05T23:45:32.564Z,69.40
2022-11-05T23:48:19.718Z,69.30
2022-11-05T23:50:57.247Z,69.30
2022-11-05T23:53:27.130Z,69.20
2022-11-05T23:56:01.221Z,69.20
2022-11-05T23:58:29.997Z,69.20
